sensor_id;sensor_type;location;lat;lon;timestamp;P1;durP1;ratioP1;P2;durP2;ratioP2
50781;SDS011;36749;37.428;-121.972;2023-04-22T00:00:03;10.95;;;2.40;;
50781;SDS011;36749;37.428;-121.972;2023-04-22T00:02:30;5.20;;;2.22;;
50781;SDS011;36749;37.428;-121.972;2023-04-22T00:04:58;7.70;;;2.60;;
50781;SDS011;36749;37.428;-121.972;2023-04-22T00:07:25;7.95;;;2.70;;
50781;SDS011;36749;37.428;-121.972;2023-04-22T00:09:51;20.15;;;3.90;;
50781;SDS011;36749;37.428;-121.972;2023-04-22T00:12:18;13.40;;;2.90;;
50781;SDS011;36749;37.428;-121.972;2023-04-22T00:14:44;12.70;;;3.03;;
50781;SDS011;36749;37.428;-121.972;2023-04-22T00:17:10;11.77;;;3.53;;
50781;SDS011;36749;37.428;-121.972;2023-04-22T00:19:37;19.52;;;3.85;;
50781;SDS011;36749;37.428;-121.972;2023-04-22T00:22:03;14.32;;;3.15;;
50781;SDS011;36749;37.428;-121.972;2023-04-22T00:24:29;13.82;;;3.10;;
50781;SDS011;36749;37.428;-121.972;2023-04-22T00:26:55;41.42;;;4.90;;
50781;SDS011;36749;37.428;-121.972;2023-04-22T00:29:22;13.32;;;3.20;;
50781;SDS011;36749;37.428;-121.972;2023-04-22T00:31:49;15.77;;;2.88;;
50781;SDS011;36749;37.428;-121.972;2023-04-22T00:34:15;15.70;;;2.95;;
50781;SDS011;36749;37.428;-121.972;2023-04-22T00:36:44;21.65;;;4.05;;
50781;SDS011;36749;37.428;-121.972;2023-04-22T00:39:11;10.90;;;2.80;;
50781;SDS011;36749;37.428;-121.972;2023-04-22T00:41:38;17.75;;;3.10;;
50781;SDS011;36749;37.428;-121.972;2023-04-22T00:44:07;11.57;;;2.78;;
50781;SDS011;36749;37.428;-121.972;2023-04-22T00:46:35;17.92;;;3.15;;
50781;SDS011;36749;37.428;-121.972;2023-04-22T00:49:05;18.77;;;3.47;;
50781;SDS011;36749;37.428;-121.972;2023-04-22T00:51:32;11.88;;;3.30;;
50781;SDS011;36749;37.428;-121.972;2023-04-22T00:53:58;17.17;;;3.40;;
50781;SDS011;36749;37.428;-121.972;2023-04-22T00:56:26;15.88;;;3.15;;
50781;SDS011;36749;37.428;-121.972;2023-04-22T00:58:53;17.95;;;2.80;;
50781;SDS011;36749;37.428;-121.972;2023-04-22T01:01:20;22.40;;;2.97;;
50781;SDS011;36749;37.428;-121.972;2023-04-22T01:03:47;19.35;;;2.92;;
50781;SDS011;36749;37.428;-121.972;2023-04-22T01:06:17;12.50;;;3.10;;
50781;SDS011;36749;37.428;-121.972;2023-04-22T01:08:44;10.50;;;2.63;;
50781;SDS011;36749;37.428;-121.972;2023-04-22T01:11:11;15.20;;;3.35;;
50781;SDS011;36749;37.428;-121.972;2023-04-22T01:13:38;18.77;;;3.38;;
50781;SDS011;36749;37.428;-121.972;2023-04-22T01:16:04;11.55;;;2.60;;
50781;SDS011;36749;37.428;-121.972;2023-04-22T01:18:34;14.10;;;3.05;;
50781;SDS011;36749;37.428;-121.972;2023-04-22T01:21:00;16.50;;;2.80;;
50781;SDS011;36749;37.428;-121.972;2023-04-22T01:23:27;12.02;;;2.45;;
50781;SDS011;36749;37.428;-121.972;2023-04-22T01:25:54;11.75;;;2.85;;
50781;SDS011;36749;37.428;-121.972;2023-04-22T01:28:20;11.38;;;3.15;;
50781;SDS011;36749;37.428;-121.972;2023-04-22T01:30:47;11.40;;;2.67;;
50781;SDS011;36749;37.428;-121.972;2023-04-22T01:33:14;13.38;;;3.28;;
50781;SDS011;36749;37.428;-121.972;2023-04-22T01:35:41;11.40;;;3.35;;
50781;SDS011;36749;37.428;-121.972;2023-04-22T01:38:08;11.90;;;3.00;;
50781;SDS011;36749;37.428;-121.972;2023-04-22T01:40:35;14.00;;;2.90;;
50781;SDS011;36749;37.428;-121.972;2023-04-22T01:43:03;14.73;;;3.28;;
50781;SDS011;36749;37.428;-121.972;2023-04-22T01:45:30;11.18;;;3.25;;
50781;SDS011;36749;37.428;-121.972;2023-04-22T01:47:56;10.75;;;3.28;;
50781;SDS011;36749;37.428;-121.972;2023-04-22T01:50:22;9.93;;;3.00;;
50781;SDS011;36749;37.428;-121.972;2023-04-22T01:52:49;12.40;;;3.00;;
50781;SDS011;36749;37.428;-121.972;2023-04-22T01:55:15;15.07;;;3.42;;
50781;SDS011;36749;37.428;-121.972;2023-04-22T01:57:41;12.93;;;3.22;;
50781;SDS011;36749;37.428;-121.972;2023-04-22T02:00:08;11.77;;;3.00;;
50781;SDS011;36749;37.428;-121.972;2023-04-22T02:02:35;9.88;;;2.80;;
50781;SDS011;36749;37.428;-121.972;2023-04-22T02:05:01;11.75;;;3.70;;
50781;SDS011;36749;37.428;-121.972;2023-04-22T02:07:27;15.00;;;2.97;;
50781;SDS011;36749;37.428;-121.972;2023-04-22T02:09:53;12.38;;;3.58;;
50781;SDS011;36749;37.428;-121.972;2023-04-22T02:12:20;14.25;;;3.22;;
50781;SDS011;36749;37.428;-121.972;2023-04-22T02:14:46;12.05;;;2.53;;
50781;SDS011;36749;37.428;-121.972;2023-04-22T02:17:12;14.05;;;2.90;;
50781;SDS011;36749;37.428;-121.972;2023-04-22T02:19:42;12.48;;;3.35;;
50781;SDS011;36749;37.428;-121.972;2023-04-22T02:22:08;12.98;;;3.30;;
50781;SDS011;36749;37.428;-121.972;2023-04-22T02:24:34;11.57;;;2.67;;
50781;SDS011;36749;37.428;-121.972;2023-04-22T02:27:01;10.93;;;3.53;;
50781;SDS011;36749;37.428;-121.972;2023-04-22T02:29:27;30.92;;;16.27;;
50781;SDS011;36749;37.428;-121.972;2023-04-22T02:31:55;19.35;;;7.22;;
50781;SDS011;36749;37.428;-121.972;2023-04-22T02:34:22;20.95;;;5.15;;
50781;SDS011;36749;37.428;-121.972;2023-04-22T02:36:48;13.52;;;3.42;;
50781;SDS011;36749;37.428;-121.972;2023-04-22T02:39:15;11.77;;;3.67;;
50781;SDS011;36749;37.428;-121.972;2023-04-22T02:41:41;15.98;;;4.68;;
50781;SDS011;36749;37.428;-121.972;2023-04-22T02:44:07;20.00;;;5.20;;
50781;SDS011;36749;37.428;-121.972;2023-04-22T02:46:33;12.23;;;4.18;;
50781;SDS011;36749;37.428;-121.972;2023-04-22T02:49:00;12.38;;;3.67;;
50781;SDS011;36749;37.428;-121.972;2023-04-22T02:51:26;19.05;;;4.63;;
50781;SDS011;36749;37.428;-121.972;2023-04-22T02:53:52;17.92;;;3.90;;
50781;SDS011;36749;37.428;-121.972;2023-04-22T02:56:19;17.73;;;4.82;;
50781;SDS011;36749;37.428;-121.972;2023-04-22T02:58:45;21.15;;;4.85;;
50781;SDS011;36749;37.428;-121.972;2023-04-22T03:01:11;27.55;;;5.38;;
50781;SDS011;36749;37.428;-121.972;2023-04-22T03:03:38;16.05;;;3.83;;
50781;SDS011;36749;37.428;-121.972;2023-04-22T03:06:04;20.13;;;4.72;;
50781;SDS011;36749;37.428;-121.972;2023-04-22T03:08:30;14.57;;;4.18;;
50781;SDS011;36749;37.428;-121.972;2023-04-22T03:10:57;18.63;;;4.65;;
50781;SDS011;36749;37.428;-121.972;2023-04-22T03:13:23;18.38;;;4.07;;
50781;SDS011;36749;37.428;-121.972;2023-04-22T03:15:49;15.57;;;3.75;;
50781;SDS011;36749;37.428;-121.972;2023-04-22T03:18:15;17.40;;;4.22;;
50781;SDS011;36749;37.428;-121.972;2023-04-22T03:20:41;25.15;;;4.80;;
50781;SDS011;36749;37.428;-121.972;2023-04-22T03:23:08;18.58;;;4.32;;
50781;SDS011;36749;37.428;-121.972;2023-04-22T03:25:34;14.13;;;3.72;;
50781;SDS011;36749;37.428;-121.972;2023-04-22T03:28:01;19.40;;;4.13;;
50781;SDS011;36749;37.428;-121.972;2023-04-22T03:30:28;15.48;;;3.97;;
50781;SDS011;36749;37.428;-121.972;2023-04-22T03:32:54;17.67;;;4.43;;
50781;SDS011;36749;37.428;-121.972;2023-04-22T03:35:21;19.40;;;5.38;;
50781;SDS011;36749;37.428;-121.972;2023-04-22T03:37:47;18.70;;;4.35;;
50781;SDS011;36749;37.428;-121.972;2023-04-22T03:40:13;27.60;;;11.70;;
50781;SDS011;36749;37.428;-121.972;2023-04-22T03:42:40;19.90;;;7.07;;
50781;SDS011;36749;37.428;-121.972;2023-04-22T03:45:06;20.20;;;7.95;;
50781;SDS011;36749;37.428;-121.972;2023-04-22T03:47:32;22.15;;;4.38;;
50781;SDS011;36749;37.428;-121.972;2023-04-22T03:49:59;13.00;;;4.43;;
50781;SDS011;36749;37.428;-121.972;2023-04-22T03:52:25;16.05;;;4.07;;
50781;SDS011;36749;37.428;-121.972;2023-04-22T03:54:51;20.38;;;5.10;;
50781;SDS011;36749;37.428;-121.972;2023-04-22T03:57:17;27.55;;;6.35;;
50781;SDS011;36749;37.428;-121.972;2023-04-22T03:59:44;24.60;;;5.75;;
50781;SDS011;36749;37.428;-121.972;2023-04-22T04:02:10;26.83;;;6.32;;
50781;SDS011;36749;37.428;-121.972;2023-04-22T04:04:36;20.40;;;4.88;;
50781;SDS011;36749;37.428;-121.972;2023-04-22T04:07:02;24.20;;;5.00;;
50781;SDS011;36749;37.428;-121.972;2023-04-22T04:09:28;22.38;;;5.43;;
50781;SDS011;36749;37.428;-121.972;2023-04-22T04:11:55;23.33;;;5.30;;
50781;SDS011;36749;37.428;-121.972;2023-04-22T04:14:22;23.92;;;4.38;;
50781;SDS011;36749;37.428;-121.972;2023-04-22T04:16:48;19.23;;;4.22;;
50781;SDS011;36749;37.428;-121.972;2023-04-22T04:19:15;19.75;;;4.30;;
50781;SDS011;36749;37.428;-121.972;2023-04-22T04:21:41;23.92;;;5.65;;
50781;SDS011;36749;37.428;-121.972;2023-04-22T04:24:08;22.00;;;4.85;;
50781;SDS011;36749;37.428;-121.972;2023-04-22T04:26:34;22.50;;;5.07;;
50781;SDS011;36749;37.428;-121.972;2023-04-22T04:29:00;18.85;;;4.55;;
50781;SDS011;36749;37.428;-121.972;2023-04-22T04:31:27;15.98;;;4.70;;
50781;SDS011;36749;37.428;-121.972;2023-04-22T04:33:53;19.17;;;5.13;;
50781;SDS011;36749;37.428;-121.972;2023-04-22T04:36:21;24.95;;;5.72;;
50781;SDS011;36749;37.428;-121.972;2023-04-22T04:38:53;31.15;;;9.13;;
50781;SDS011;36749;37.428;-121.972;2023-04-22T04:41:20;34.75;;;18.40;;
50781;SDS011;36749;37.428;-121.972;2023-04-22T04:43:47;25.67;;;9.07;;
50781;SDS011;36749;37.428;-121.972;2023-04-22T04:46:14;27.25;;;8.20;;
50781;SDS011;36749;37.428;-121.972;2023-04-22T04:48:40;27.17;;;6.10;;
50781;SDS011;36749;37.428;-121.972;2023-04-22T04:51:08;18.85;;;5.78;;
50781;SDS011;36749;37.428;-121.972;2023-04-22T04:53:34;20.08;;;6.00;;
50781;SDS011;36749;37.428;-121.972;2023-04-22T04:56:00;23.77;;;5.63;;
50781;SDS011;36749;37.428;-121.972;2023-04-22T04:58:26;26.50;;;6.20;;
50781;SDS011;36749;37.428;-121.972;2023-04-22T05:00:53;30.92;;;6.20;;
50781;SDS011;36749;37.428;-121.972;2023-04-22T05:03:19;19.92;;;4.80;;
50781;SDS011;36749;37.428;-121.972;2023-04-22T05:05:46;23.75;;;6.22;;
50781;SDS011;36749;37.428;-121.972;2023-04-22T05:08:13;20.38;;;5.45;;
50781;SDS011;36749;37.428;-121.972;2023-04-22T05:10:39;23.90;;;5.18;;
50781;SDS011;36749;37.428;-121.972;2023-04-22T05:13:06;23.05;;;5.18;;
50781;SDS011;36749;37.428;-121.972;2023-04-22T05:15:33;24.85;;;5.78;;
50781;SDS011;36749;37.428;-121.972;2023-04-22T05:17:59;26.42;;;5.50;;
50781;SDS011;36749;37.428;-121.972;2023-04-22T05:20:25;22.67;;;6.25;;
50781;SDS011;36749;37.428;-121.972;2023-04-22T05:22:52;24.67;;;6.05;;
50781;SDS011;36749;37.428;-121.972;2023-04-22T05:25:18;29.00;;;6.35;;
50781;SDS011;36749;37.428;-121.972;2023-04-22T05:27:44;23.67;;;6.00;;
50781;SDS011;36749;37.428;-121.972;2023-04-22T05:30:10;23.02;;;6.28;;
50781;SDS011;36749;37.428;-121.972;2023-04-22T05:32:37;24.00;;;5.95;;
50781;SDS011;36749;37.428;-121.972;2023-04-22T05:35:03;27.40;;;6.63;;
50781;SDS011;36749;37.428;-121.972;2023-04-22T05:37:29;26.98;;;5.28;;
50781;SDS011;36749;37.428;-121.972;2023-04-22T05:39:56;30.63;;;6.97;;
50781;SDS011;36749;37.428;-121.972;2023-04-22T05:42:22;24.80;;;6.07;;
50781;SDS011;36749;37.428;-121.972;2023-04-22T05:44:48;21.13;;;5.13;;
50781;SDS011;36749;37.428;-121.972;2023-04-22T05:47:15;25.40;;;5.93;;
50781;SDS011;36749;37.428;-121.972;2023-04-22T05:49:41;24.63;;;6.47;;
50781;SDS011;36749;37.428;-121.972;2023-04-22T05:52:07;20.65;;;6.30;;
50781;SDS011;36749;37.428;-121.972;2023-04-22T05:54:33;25.90;;;6.30;;
50781;SDS011;36749;37.428;-121.972;2023-04-22T05:57:00;24.33;;;6.35;;
50781;SDS011;36749;37.428;-121.972;2023-04-22T05:59:26;22.10;;;5.65;;
50781;SDS011;36749;37.428;-121.972;2023-04-22T06:01:52;27.63;;;5.93;;
50781;SDS011;36749;37.428;-121.972;2023-04-22T06:04:19;27.35;;;5.45;;
50781;SDS011;36749;37.428;-121.972;2023-04-22T06:06:45;26.42;;;5.60;;
50781;SDS011;36749;37.428;-121.972;2023-04-22T06:09:12;29.10;;;6.18;;
50781;SDS011;36749;37.428;-121.972;2023-04-22T06:11:38;32.40;;;5.97;;
50781;SDS011;36749;37.428;-121.972;2023-04-22T06:14:05;30.15;;;7.10;;
50781;SDS011;36749;37.428;-121.972;2023-04-22T06:16:32;26.98;;;6.05;;
50781;SDS011;36749;37.428;-121.972;2023-04-22T06:18:58;23.80;;;6.25;;
50781;SDS011;36749;37.428;-121.972;2023-04-22T06:21:25;26.58;;;6.18;;
50781;SDS011;36749;37.428;-121.972;2023-04-22T06:23:51;25.85;;;7.10;;
50781;SDS011;36749;37.428;-121.972;2023-04-22T06:26:17;20.00;;;5.13;;
50781;SDS011;36749;37.428;-121.972;2023-04-22T06:28:43;27.85;;;7.10;;
50781;SDS011;36749;37.428;-121.972;2023-04-22T06:31:10;22.98;;;5.43;;
50781;SDS011;36749;37.428;-121.972;2023-04-22T06:33:36;29.35;;;6.40;;
50781;SDS011;36749;37.428;-121.972;2023-04-22T06:36:02;24.27;;;6.50;;
50781;SDS011;36749;37.428;-121.972;2023-04-22T06:38:29;25.15;;;5.47;;
50781;SDS011;36749;37.428;-121.972;2023-04-22T06:40:55;28.33;;;5.70;;
50781;SDS011;36749;37.428;-121.972;2023-04-22T06:43:21;33.70;;;6.95;;
50781;SDS011;36749;37.428;-121.972;2023-04-22T06:45:48;26.50;;;5.95;;
50781;SDS011;36749;37.428;-121.972;2023-04-22T06:48:14;21.25;;;5.50;;
50781;SDS011;36749;37.428;-121.972;2023-04-22T06:50:40;24.23;;;5.95;;
50781;SDS011;36749;37.428;-121.972;2023-04-22T06:53:06;21.58;;;5.28;;
50781;SDS011;36749;37.428;-121.972;2023-04-22T06:55:34;23.42;;;5.60;;
50781;SDS011;36749;37.428;-121.972;2023-04-22T06:58:00;30.85;;;6.30;;
50781;SDS011;36749;37.428;-121.972;2023-04-22T07:00:27;20.70;;;4.70;;
50781;SDS011;36749;37.428;-121.972;2023-04-22T07:02:53;23.52;;;5.53;;
50781;SDS011;36749;37.428;-121.972;2023-04-22T07:05:19;26.42;;;7.05;;
50781;SDS011;36749;37.428;-121.972;2023-04-22T07:07:46;31.17;;;6.35;;
50781;SDS011;36749;37.428;-121.972;2023-04-22T07:10:12;24.48;;;6.55;;
50781;SDS011;36749;37.428;-121.972;2023-04-22T07:12:41;29.48;;;6.05;;
50781;SDS011;36749;37.428;-121.972;2023-04-22T07:15:09;24.17;;;5.95;;
50781;SDS011;36749;37.428;-121.972;2023-04-22T07:17:35;26.23;;;6.03;;
50781;SDS011;36749;37.428;-121.972;2023-04-22T07:20:01;22.73;;;5.55;;
50781;SDS011;36749;37.428;-121.972;2023-04-22T07:22:28;26.90;;;6.93;;
50781;SDS011;36749;37.428;-121.972;2023-04-22T07:24:54;18.40;;;5.55;;
50781;SDS011;36749;37.428;-121.972;2023-04-22T07:27:20;20.90;;;6.10;;
50781;SDS011;36749;37.428;-121.972;2023-04-22T07:29:46;26.98;;;5.95;;
50781;SDS011;36749;37.428;-121.972;2023-04-22T07:32:13;24.85;;;5.18;;
50781;SDS011;36749;37.428;-121.972;2023-04-22T07:34:39;25.17;;;5.78;;
50781;SDS011;36749;37.428;-121.972;2023-04-22T07:37:05;20.83;;;5.88;;
50781;SDS011;36749;37.428;-121.972;2023-04-22T07:39:33;24.70;;;5.85;;
50781;SDS011;36749;37.428;-121.972;2023-04-22T07:41:59;23.98;;;5.65;;
50781;SDS011;36749;37.428;-121.972;2023-04-22T07:44:26;23.67;;;5.75;;
50781;SDS011;36749;37.428;-121.972;2023-04-22T07:46:52;34.15;;;7.00;;
50781;SDS011;36749;37.428;-121.972;2023-04-22T07:49:19;25.23;;;6.18;;
50781;SDS011;36749;37.428;-121.972;2023-04-22T07:51:45;26.38;;;6.10;;
50781;SDS011;36749;37.428;-121.972;2023-04-22T07:54:12;26.58;;;6.25;;
50781;SDS011;36749;37.428;-121.972;2023-04-22T07:56:38;28.83;;;6.93;;
50781;SDS011;36749;37.428;-121.972;2023-04-22T07:59:05;22.80;;;5.57;;
50781;SDS011;36749;37.428;-121.972;2023-04-22T08:01:31;26.40;;;6.07;;
50781;SDS011;36749;37.428;-121.972;2023-04-22T08:03:58;21.67;;;5.60;;
50781;SDS011;36749;37.428;-121.972;2023-04-22T08:06:24;23.23;;;5.90;;
50781;SDS011;36749;37.428;-121.972;2023-04-22T08:08:52;23.98;;;6.28;;
50781;SDS011;36749;37.428;-121.972;2023-04-22T08:11:18;24.92;;;5.57;;
50781;SDS011;36749;37.428;-121.972;2023-04-22T08:13:45;17.75;;;5.25;;
50781;SDS011;36749;37.428;-121.972;2023-04-22T08:16:11;23.73;;;6.18;;
50781;SDS011;36749;37.428;-121.972;2023-04-22T08:18:37;23.83;;;5.95;;
50781;SDS011;36749;37.428;-121.972;2023-04-22T08:21:03;21.85;;;6.53;;
50781;SDS011;36749;37.428;-121.972;2023-04-22T08:23:30;23.15;;;5.47;;
50781;SDS011;36749;37.428;-121.972;2023-04-22T08:25:56;25.73;;;5.63;;
50781;SDS011;36749;37.428;-121.972;2023-04-22T08:28:23;20.83;;;5.53;;
50781;SDS011;36749;37.428;-121.972;2023-04-22T08:30:49;26.60;;;6.65;;
50781;SDS011;36749;37.428;-121.972;2023-04-22T08:33:15;20.83;;;6.03;;
50781;SDS011;36749;37.428;-121.972;2023-04-22T08:35:42;18.10;;;5.55;;
50781;SDS011;36749;37.428;-121.972;2023-04-22T08:38:08;17.55;;;5.85;;
50781;SDS011;36749;37.428;-121.972;2023-04-22T08:40:34;19.73;;;5.05;;
50781;SDS011;36749;37.428;-121.972;2023-04-22T08:43:00;19.08;;;5.25;;
50781;SDS011;36749;37.428;-121.972;2023-04-22T08:45:27;23.80;;;6.60;;
50781;SDS011;36749;37.428;-121.972;2023-04-22T08:47:54;21.02;;;5.25;;
50781;SDS011;36749;37.428;-121.972;2023-04-22T08:50:20;22.48;;;6.80;;
50781;SDS011;36749;37.428;-121.972;2023-04-22T08:52:47;24.67;;;6.70;;
50781;SDS011;36749;37.428;-121.972;2023-04-22T08:55:13;20.02;;;5.43;;
50781;SDS011;36749;37.428;-121.972;2023-04-22T08:57:40;18.75;;;5.00;;
50781;SDS011;36749;37.428;-121.972;2023-04-22T09:00:06;22.45;;;5.25;;
50781;SDS011;36749;37.428;-121.972;2023-04-22T09:02:33;23.15;;;6.00;;
50781;SDS011;36749;37.428;-121.972;2023-04-22T09:05:02;23.67;;;5.82;;
50781;SDS011;36749;37.428;-121.972;2023-04-22T09:07:31;23.83;;;7.20;;
50781;SDS011;36749;37.428;-121.972;2023-04-22T09:09:57;27.20;;;7.30;;
50781;SDS011;36749;37.428;-121.972;2023-04-22T09:12:24;21.27;;;6.10;;
50781;SDS011;36749;37.428;-121.972;2023-04-22T09:14:51;25.75;;;6.88;;
50781;SDS011;36749;37.428;-121.972;2023-04-22T09:17:28;29.73;;;7.00;;
50781;SDS011;36749;37.428;-121.972;2023-04-22T09:19:59;25.85;;;7.22;;
50781;SDS011;36749;37.428;-121.972;2023-04-22T09:22:35;24.60;;;5.90;;
50781;SDS011;36749;37.428;-121.972;2023-04-22T09:25:04;27.85;;;5.82;;
50781;SDS011;36749;37.428;-121.972;2023-04-22T09:27:30;23.17;;;5.20;;
50781;SDS011;36749;37.428;-121.972;2023-04-22T09:29:58;28.45;;;6.22;;
50781;SDS011;36749;37.428;-121.972;2023-04-22T09:32:24;27.17;;;6.40;;
50781;SDS011;36749;37.428;-121.972;2023-04-22T09:34:51;29.52;;;5.85;;
50781;SDS011;36749;37.428;-121.972;2023-04-22T09:37:27;29.67;;;5.82;;
50781;SDS011;36749;37.428;-121.972;2023-04-22T09:39:53;24.00;;;6.32;;
50781;SDS011;36749;37.428;-121.972;2023-04-22T09:42:20;23.35;;;5.78;;
50781;SDS011;36749;37.428;-121.972;2023-04-22T09:44:47;24.98;;;6.82;;
50781;SDS011;36749;37.428;-121.972;2023-04-22T09:47:18;26.60;;;6.03;;
50781;SDS011;36749;37.428;-121.972;2023-04-22T09:49:45;25.20;;;5.55;;
50781;SDS011;36749;37.428;-121.972;2023-04-22T09:52:23;20.67;;;5.82;;
50781;SDS011;36749;37.428;-121.972;2023-04-22T09:54:51;22.38;;;5.18;;
50781;SDS011;36749;37.428;-121.972;2023-04-22T09:57:18;27.90;;;5.72;;
50781;SDS011;36749;37.428;-121.972;2023-04-22T09:59:45;26.60;;;6.53;;
50781;SDS011;36749;37.428;-121.972;2023-04-22T10:02:11;25.50;;;6.85;;
50781;SDS011;36749;37.428;-121.972;2023-04-22T10:04:38;23.90;;;4.95;;
50781;SDS011;36749;37.428;-121.972;2023-04-22T10:07:04;26.92;;;6.95;;
50781;SDS011;36749;37.428;-121.972;2023-04-22T10:09:31;27.73;;;6.82;;
50781;SDS011;36749;37.428;-121.972;2023-04-22T10:11:57;35.42;;;7.50;;
50781;SDS011;36749;37.428;-121.972;2023-04-22T10:14:24;24.38;;;6.57;;
50781;SDS011;36749;37.428;-121.972;2023-04-22T10:16:53;24.25;;;6.40;;
50781;SDS011;36749;37.428;-121.972;2023-04-22T10:19:24;21.02;;;6.00;;
50781;SDS011;36749;37.428;-121.972;2023-04-22T10:21:58;31.85;;;7.20;;
50781;SDS011;36749;37.428;-121.972;2023-04-22T10:24:26;26.25;;;6.47;;
50781;SDS011;36749;37.428;-121.972;2023-04-22T10:26:56;20.73;;;6.00;;
50781;SDS011;36749;37.428;-121.972;2023-04-22T10:29:24;27.33;;;6.65;;
50781;SDS011;36749;37.428;-121.972;2023-04-22T10:31:53;24.70;;;6.20;;
50781;SDS011;36749;37.428;-121.972;2023-04-22T10:34:22;29.83;;;6.32;;
50781;SDS011;36749;37.428;-121.972;2023-04-22T10:36:56;27.35;;;6.50;;
50781;SDS011;36749;37.428;-121.972;2023-04-22T10:40:05;31.10;;;6.43;;
50781;SDS011;36749;37.428;-121.972;2023-04-22T10:42:33;30.98;;;7.72;;
50781;SDS011;36749;37.428;-121.972;2023-04-22T10:45:01;28.75;;;8.73;;
50781;SDS011;36749;37.428;-121.972;2023-04-22T10:47:32;32.42;;;8.23;;
50781;SDS011;36749;37.428;-121.972;2023-04-22T10:52:49;22.75;;;6.40;;
50781;SDS011;36749;37.428;-121.972;2023-04-22T10:55:18;23.85;;;6.15;;
50781;SDS011;36749;37.428;-121.972;2023-04-22T10:57:45;26.92;;;6.47;;
50781;SDS011;36749;37.428;-121.972;2023-04-22T11:00:26;25.98;;;6.53;;
50781;SDS011;36749;37.428;-121.972;2023-04-22T11:03:05;29.90;;;7.28;;
50781;SDS011;36749;37.428;-121.972;2023-04-22T11:05:36;24.08;;;5.38;;
50781;SDS011;36749;37.428;-121.972;2023-04-22T11:08:08;24.50;;;5.65;;
50781;SDS011;36749;37.428;-121.972;2023-04-22T11:10:44;23.05;;;5.88;;
50781;SDS011;36749;37.428;-121.972;2023-04-22T11:13:13;23.33;;;5.10;;
50781;SDS011;36749;37.428;-121.972;2023-04-22T11:15:42;25.80;;;6.75;;
50781;SDS011;36749;37.428;-121.972;2023-04-22T11:18:11;28.85;;;6.25;;
50781;SDS011;36749;37.428;-121.972;2023-04-22T11:20:39;23.85;;;5.13;;
50781;SDS011;36749;37.428;-121.972;2023-04-22T11:23:06;22.80;;;5.53;;
50781;SDS011;36749;37.428;-121.972;2023-04-22T11:25:32;24.35;;;7.47;;
50781;SDS011;36749;37.428;-121.972;2023-04-22T11:27:59;30.30;;;5.75;;
50781;SDS011;36749;37.428;-121.972;2023-04-22T11:30:26;16.95;;;4.65;;
50781;SDS011;36749;37.428;-121.972;2023-04-22T11:32:54;20.95;;;5.88;;
50781;SDS011;36749;37.428;-121.972;2023-04-22T11:35:23;23.30;;;6.35;;
50781;SDS011;36749;37.428;-121.972;2023-04-22T11:40:30;27.52;;;6.25;;
50781;SDS011;36749;37.428;-121.972;2023-04-22T11:42:59;20.02;;;5.10;;
50781;SDS011;36749;37.428;-121.972;2023-04-22T11:45:28;20.65;;;5.90;;
50781;SDS011;36749;37.428;-121.972;2023-04-22T11:47:55;18.85;;;5.55;;
50781;SDS011;36749;37.428;-121.972;2023-04-22T11:50:26;22.95;;;6.25;;
50781;SDS011;36749;37.428;-121.972;2023-04-22T11:57:57;23.25;;;5.60;;
50781;SDS011;36749;37.428;-121.972;2023-04-22T12:00:29;22.08;;;5.82;;
50781;SDS011;36749;37.428;-121.972;2023-04-22T12:03:06;22.27;;;5.57;;
50781;SDS011;36749;37.428;-121.972;2023-04-22T12:05:43;27.77;;;5.90;;
50781;SDS011;36749;37.428;-121.972;2023-04-22T12:08:22;22.70;;;5.10;;
50781;SDS011;36749;37.428;-121.972;2023-04-22T12:10:54;16.23;;;4.80;;
50781;SDS011;36749;37.428;-121.972;2023-04-22T12:13:23;21.05;;;4.95;;
50781;SDS011;36749;37.428;-121.972;2023-04-22T12:15:53;19.42;;;4.95;;
50781;SDS011;36749;37.428;-121.972;2023-04-22T12:18:37;20.73;;;5.03;;
50781;SDS011;36749;37.428;-121.972;2023-04-22T12:26:07;24.95;;;6.47;;
50781;SDS011;36749;37.428;-121.972;2023-04-22T12:28:36;20.58;;;5.75;;
50781;SDS011;36749;37.428;-121.972;2023-04-22T12:31:02;35.88;;;6.93;;
50781;SDS011;36749;37.428;-121.972;2023-04-22T12:33:29;42.55;;;7.50;;
50781;SDS011;36749;37.428;-121.972;2023-04-22T12:35:55;29.50;;;6.78;;
50781;SDS011;36749;37.428;-121.972;2023-04-22T12:38:21;99.75;;;12.65;;
50781;SDS011;36749;37.428;-121.972;2023-04-22T12:40:48;36.55;;;7.80;;
50781;SDS011;36749;37.428;-121.972;2023-04-22T12:43:15;26.17;;;6.97;;
50781;SDS011;36749;37.428;-121.972;2023-04-22T12:45:42;27.08;;;5.53;;
50781;SDS011;36749;37.428;-121.972;2023-04-22T12:48:08;25.75;;;6.30;;
50781;SDS011;36749;37.428;-121.972;2023-04-22T12:50:35;30.45;;;6.80;;
50781;SDS011;36749;37.428;-121.972;2023-04-22T12:53:01;27.40;;;6.78;;
50781;SDS011;36749;37.428;-121.972;2023-04-22T12:55:28;20.00;;;5.30;;
50781;SDS011;36749;37.428;-121.972;2023-04-22T12:57:54;23.83;;;5.38;;
50781;SDS011;36749;37.428;-121.972;2023-04-22T13:00:21;21.02;;;6.07;;
50781;SDS011;36749;37.428;-121.972;2023-04-22T13:02:48;20.25;;;5.65;;
50781;SDS011;36749;37.428;-121.972;2023-04-22T13:05:16;19.05;;;5.97;;
50781;SDS011;36749;37.428;-121.972;2023-04-22T13:07:43;20.67;;;5.32;;
50781;SDS011;36749;37.428;-121.972;2023-04-22T13:10:11;18.92;;;5.65;;
50781;SDS011;36749;37.428;-121.972;2023-04-22T13:12:39;16.70;;;5.85;;
50781;SDS011;36749;37.428;-121.972;2023-04-22T13:15:06;19.42;;;5.70;;
50781;SDS011;36749;37.428;-121.972;2023-04-22T13:17:33;17.23;;;4.85;;
50781;SDS011;36749;37.428;-121.972;2023-04-22T13:20:00;21.23;;;5.93;;
50781;SDS011;36749;37.428;-121.972;2023-04-22T13:22:28;20.13;;;5.55;;
50781;SDS011;36749;37.428;-121.972;2023-04-22T13:24:55;25.15;;;6.15;;
50781;SDS011;36749;37.428;-121.972;2023-04-22T13:27:21;16.98;;;5.57;;
50781;SDS011;36749;37.428;-121.972;2023-04-22T13:29:48;22.63;;;5.72;;
50781;SDS011;36749;37.428;-121.972;2023-04-22T13:32:14;25.10;;;6.40;;
50781;SDS011;36749;37.428;-121.972;2023-04-22T13:34:40;20.92;;;7.05;;
50781;SDS011;36749;37.428;-121.972;2023-04-22T13:37:06;19.52;;;6.28;;
50781;SDS011;36749;37.428;-121.972;2023-04-22T13:39:33;24.80;;;6.05;;
50781;SDS011;36749;37.428;-121.972;2023-04-22T13:41:59;21.35;;;6.00;;
50781;SDS011;36749;37.428;-121.972;2023-04-22T13:44:25;14.57;;;5.93;;
50781;SDS011;36749;37.428;-121.972;2023-04-22T13:46:52;23.48;;;7.38;;
50781;SDS011;36749;37.428;-121.972;2023-04-22T13:49:18;23.80;;;6.63;;
50781;SDS011;36749;37.428;-121.972;2023-04-22T13:51:44;17.45;;;6.07;;
50781;SDS011;36749;37.428;-121.972;2023-04-22T13:54:11;21.17;;;5.68;;
50781;SDS011;36749;37.428;-121.972;2023-04-22T13:56:37;22.45;;;5.93;;
50781;SDS011;36749;37.428;-121.972;2023-04-22T13:59:03;21.98;;;6.72;;
50781;SDS011;36749;37.428;-121.972;2023-04-22T14:01:29;21.15;;;6.88;;
50781;SDS011;36749;37.428;-121.972;2023-04-22T14:03:55;25.65;;;8.05;;
50781;SDS011;36749;37.428;-121.972;2023-04-22T14:06:22;23.77;;;7.00;;
50781;SDS011;36749;37.428;-121.972;2023-04-22T14:08:48;23.40;;;8.18;;
50781;SDS011;36749;37.428;-121.972;2023-04-22T14:11:14;23.13;;;6.53;;